createdAt,value
2022-09-30T00:01:52.694Z,15.20
2022-09-30T00:04:20.784Z,15.20
2022-09-30T00:06:48.125Z,15.20
2022-09-30T00:09:15.305Z,15.20
2022-09-30T00:11:42.803Z,15.20
2022-09-30T00:14:17.784Z,15.20
2022-09-30T00:16:45.009Z,15.20
2022-09-30T00:19:11.819Z,15.30
2022-09-30T00:21:38.844Z,15.20
2022-09-30T00:24:05.695Z,15.20
2022-09-30T00:26:33.299Z,15.20
2022-09-30T00:29:00.583Z,15.10
2022-09-30T00:31:29.260Z,15.10
2022-09-30T00:34:08.416Z,15.10
2022-09-30T00:36:45.884Z,15.00
2022-09-30T00:39:14.846Z,15.00
2022-09-30T00:41:42.136Z,14.80
2022-09-30T00:44:27.712Z,14.70
2022-09-30T00:46:55.599Z,14.70
2022-09-30T00:49:24.268Z,14.60
2022-09-30T00:51:54.652Z,14.50
2022-09-30T00:54:23.167Z,14.50
2022-09-30T00:56:51.787Z,14.60
2022-09-30T00:59:22.184Z,14.70
2022-09-30T01:01:49.234Z,14.80
2022-09-30T01:04:17.718Z,14.80
2022-09-30T01:06:44.492Z,14.80
2022-09-30T01:09:11.575Z,14.80
2022-09-30T01:11:38.357Z,14.80
2022-09-30T01:14:06.669Z,15.00
2022-09-30T01:17:02.623Z,14.90
2022-09-30T01:19:44.560Z,14.90
2022-09-30T01:22:14.080Z,14.90
2022-09-30T01:24:59.203Z,14.90
2022-09-30T01:27:34.776Z,15.10
2022-09-30T01:30:20.171Z,15.00
2022-09-30T01:32:50.265Z,14.90
2022-09-30T01:35:35.728Z,14.90
2022-09-30T01:38:11.565Z,14.80
2022-09-30T01:40:38.287Z,14.80
2022-09-30T01:43:11.730Z,14.90
2022-09-30T01:45:42.826Z,14.90
2022-09-30T01:48:22.759Z,15.00
2022-09-30T01:51:09.925Z,15.00
2022-09-30T01:53:49.623Z,15.00
2022-09-30T01:56:18.797Z,15.00
2022-09-30T01:59:00.940Z,15.10
2022-09-30T02:01:33.168Z,15.00
2022-09-30T02:04:09.355Z,15.00
2022-09-30T02:06:38.528Z,15.00
2022-09-30T02:09:07.569Z,15.00
2022-09-30T02:11:36.452Z,15.00
2022-09-30T02:14:13.949Z,15.10
2022-09-30T02:16:43.786Z,15.00
2022-09-30T02:19:16.937Z,15.00
2022-09-30T02:21:45.605Z,15.00
2022-09-30T02:24:14.673Z,14.90
2022-09-30T02:26:42.760Z,14.90
2022-09-30T02:29:21.291Z,15.00
2022-09-30T02:31:50.468Z,15.00
2022-09-30T02:34:22.952Z,14.90
2022-09-30T02:36:55.683Z,14.80
2022-09-30T02:39:42.660Z,14.70
2022-09-30T02:42:18.199Z,14.70
2022-09-30T02:44:45.036Z,14.70
2022-09-30T02:47:14.752Z,14.70
2022-09-30T02:49:44.279Z,14.70
2022-09-30T02:52:12.604Z,14.70
2022-09-30T02:54:43.084Z,14.70
2022-09-30T02:57:18.785Z,14.70
2022-09-30T02:59:51.208Z,14.70
2022-09-30T03:02:18.481Z,14.50
2022-09-30T03:04:46.180Z,14.40
2022-09-30T03:07:13.114Z,14.30
2022-09-30T03:09:40.043Z,14.30
2022-09-30T03:12:12.091Z,14.30
2022-09-30T03:14:41.896Z,14.30
2022-09-30T03:17:11.391Z,14.20
2022-09-30T03:19:42.320Z,14.30
2022-09-30T03:22:10.830Z,14.30
2022-09-30T03:24:56.031Z,14.40
2022-09-30T03:27:32.534Z,14.30
2022-09-30T03:30:07.857Z,14.30
2022-09-30T03:32:46.577Z,14.30
2022-09-30T03:35:19.191Z,14.20
2022-09-30T03:38:00.845Z,14.20
2022-09-30T03:40:36.732Z,14.20
2022-09-30T03:43:06.508Z,14.10
2022-09-30T03:45:33.206Z,14.20
2022-09-30T03:48:03.607Z,14.20
2022-09-30T03:50:31.433Z,14.20
2022-09-30T03:52:58.347Z,14.20
2022-09-30T03:55:25.666Z,14.10
2022-09-30T03:57:54.381Z,14.10
2022-09-30T04:00:21.328Z,14.10
2022-09-30T04:02:48.246Z,14.00
2022-09-30T04:05:15.135Z,14.00
2022-09-30T04:07:41.920Z,13.90
2022-09-30T04:10:08.975Z,13.90
2022-09-30T04:12:35.668Z,14.00
2022-09-30T04:15:02.389Z,13.90
2022-09-30T04:17:29.249Z,14.00
2022-09-30T04:19:56.001Z,14.00
2022-09-30T04:22:26.308Z,14.00
2022-09-30T04:24:53.366Z,14.00
2022-09-30T04:27:20.069Z,14.10
2022-09-30T04:29:46.803Z,13.90
2022-09-30T04:32:13.521Z,13.90
2022-09-30T04:34:40.289Z,13.80
2022-09-30T04:37:10.720Z,13.90
2022-09-30T04:39:37.720Z,13.80
2022-09-30T04:42:04.525Z,13.80
2022-09-30T04:44:31.321Z,13.70
2022-09-30T04:46:58.044Z,13.80
2022-09-30T04:49:24.826Z,13.90
2022-09-30T04:51:51.556Z,13.90
2022-09-30T04:54:19.324Z,14.00
2022-09-30T04:56:46.047Z,14.00
2022-09-30T04:59:12.822Z,13.90
2022-09-30T05:01:40.394Z,14.10
2022-09-30T05:04:08.252Z,14.20
2022-09-30T05:06:35.091Z,14.50
2022-09-30T05:09:01.884Z,14.50
2022-09-30T05:11:29.492Z,14.50
2022-09-30T05:13:56.334Z,14.70
2022-09-30T05:16:23.217Z,14.30
2022-09-30T05:18:50.132Z,14.20
2022-09-30T05:21:19.629Z,14.10
2022-09-30T05:23:46.614Z,14.40
2022-09-30T05:26:13.549Z,14.40
2022-09-30T05:28:40.937Z,14.30
2022-09-30T05:31:07.923Z,14.30
2022-09-30T05:33:35.807Z,14.30
2022-09-30T05:36:04.846Z,14.40
2022-09-30T05:38:31.884Z,14.50
2022-09-30T05:40:58.882Z,14.50
2022-09-30T05:43:25.656Z,14.50
2022-09-30T05:45:53.219Z,14.50
2022-09-30T05:48:20.410Z,14.40
2022-09-30T05:50:50.694Z,14.30
2022-09-30T05:53:18.535Z,14.40
2022-09-30T05:55:46.515Z,14.40
2022-09-30T05:58:14.929Z,14.50
2022-09-30T06:00:42.228Z,14.60
2022-09-30T06:03:09.154Z,14.70
2022-09-30T06:05:36.006Z,14.70
2022-09-30T06:08:03.113Z,14.70
2022-09-30T06:10:30.235Z,14.70
2022-09-30T06:12:59.138Z,14.70
2022-09-30T06:15:26.939Z,14.70
2022-09-30T06:17:53.984Z,14.70
2022-09-30T06:20:20.879Z,14.80
2022-09-30T06:22:47.915Z,15.00
2022-09-30T06:25:14.725Z,15.20
2022-09-30T06:27:44.408Z,15.30
2022-09-30T06:30:11.248Z,15.50
2022-09-30T06:32:38.192Z,15.70
2022-09-30T06:35:05.147Z,16.10
2022-09-30T06:37:31.949Z,16.40
2022-09-30T06:39:58.688Z,16.60
2022-09-30T06:42:25.468Z,16.70
2022-09-30T06:44:53.563Z,16.80
2022-09-30T06:47:25.157Z,16.90
2022-09-30T06:49:59.066Z,17.10
2022-09-30T06:52:26.528Z,17.70
2022-09-30T06:54:56.692Z,17.90
2022-09-30T06:57:25.026Z,17.70
2022-09-30T06:59:51.833Z,17.70
2022-09-30T07:02:20.872Z,17.80
2022-09-30T07:04:48.037Z,18.10
2022-09-30T07:07:15.189Z,18.10
2022-09-30T07:09:43.336Z,18.10
2022-09-30T07:12:10.513Z,17.90
2022-09-30T07:14:37.486Z,17.80
2022-09-30T07:17:05.613Z,17.70
2022-09-30T07:19:34.915Z,17.80
2022-09-30T07:22:21.877Z,18.00
2022-09-30T07:24:48.703Z,18.00
2022-09-30T07:27:15.655Z,18.30
2022-09-30T07:30:04.344Z,18.60
2022-09-30T07:32:29.947Z,18.80
2022-09-30T07:34:57.216Z,19.00
2022-09-30T07:37:24.875Z,19.10
2022-09-30T07:39:52.162Z,19.20
2022-09-30T07:42:23.141Z,19.50
2022-09-30T07:44:52.119Z,19.70
2022-09-30T07:47:19.792Z,20.00
2022-09-30T07:49:46.605Z,20.30
2022-09-30T07:52:13.449Z,20.50
2022-09-30T07:54:44.262Z,20.50
2022-09-30T07:57:13.575Z,20.80
2022-09-30T07:59:41.415Z,20.90
2022-09-30T08:02:11.264Z,20.70
2022-09-30T08:04:43.470Z,20.60
2022-09-30T08:07:11.204Z,20.80
2022-09-30T08:09:38.094Z,20.90
2022-09-30T08:12:05.651Z,20.70
2022-09-30T08:14:32.527Z,20.70
2022-09-30T08:17:00.648Z,20.90
2022-09-30T08:19:28.670Z,20.40
2022-09-30T08:21:55.869Z,20.50
2022-09-30T08:24:23.335Z,20.40
2022-09-30T08:26:51.088Z,20.40
2022-09-30T08:29:20.432Z,20.70
2022-09-30T08:31:52.460Z,21.00
2022-09-30T08:34:19.586Z,21.20
2022-09-30T08:36:46.667Z,21.00
2022-09-30T08:39:13.648Z,21.00
2022-09-30T08:41:53.823Z,21.00
2022-09-30T08:44:38.511Z,20.90
2022-09-30T08:47:23.831Z,20.70
2022-09-30T08:50:08.019Z,20.80
2022-09-30T08:52:49.092Z,20.90
2022-09-30T08:55:31.686Z,20.90
2022-09-30T08:57:58.483Z,20.60
2022-09-30T09:00:25.923Z,20.40
2022-09-30T09:02:59.393Z,20.40
2022-09-30T09:05:32.408Z,20.30
2022-09-30T09:08:09.125Z,20.40
2022-09-30T09:10:41.836Z,20.40
2022-09-30T09:13:08.502Z,20.30
2022-09-30T09:15:55.473Z,20.10
2022-09-30T09:18:37.264Z,20.00
2022-09-30T09:21:03.955Z,20.00
2022-09-30T09:23:31.309Z,20.00
2022-09-30T09:25:58.779Z,20.00
2022-09-30T09:28:54.620Z,20.10
2022-09-30T09:31:21.630Z,20.10
2022-09-30T09:33:48.484Z,20.20
2022-09-30T09:36:30.235Z,20.20
2022-09-30T09:39:05.963Z,20.00
2022-09-30T09:41:37.949Z,20.20
2022-09-30T09:44:17.933Z,20.10
2022-09-30T09:46:44.775Z,19.90
2022-09-30T09:49:20.297Z,19.80
2022-09-30T09:51:56.221Z,19.90
2022-09-30T09:54:24.790Z,19.90
2022-09-30T09:56:53.070Z,19.70
2022-09-30T09:59:20.495Z,19.70
2022-09-30T10:01:50.144Z,19.60
2022-09-30T10:04:23.643Z,19.60
2022-09-30T10:06:52.337Z,19.60
2022-09-30T10:09:24.185Z,19.60
2022-09-30T10:11:51.325Z,19.70
2022-09-30T10:14:20.993Z,19.70
2022-09-30T10:16:48.236Z,19.70
2022-09-30T10:19:22.762Z,19.80
2022-09-30T10:21:51.863Z,19.90
2022-09-30T10:24:29.015Z,19.90
2022-09-30T10:26:56.128Z,19.80
2022-09-30T10:29:27.459Z,20.00
2022-09-30T10:31:58.966Z,20.10
2022-09-30T10:34:26.790Z,20.20
2022-09-30T10:36:53.863Z,20.20
2022-09-30T10:39:20.930Z,20.10
2022-09-30T10:41:47.695Z,20.10
2022-09-30T10:44:17.151Z,20.10
2022-09-30T10:46:45.009Z,20.10
2022-09-30T10:49:20.392Z,20.10
2022-09-30T10:51:47.196Z,20.10
2022-09-30T10:54:33.900Z,20.00
2022-09-30T10:57:04.054Z,20.00
2022-09-30T10:59:36.955Z,19.90
2022-09-30T11:02:23.923Z,19.90
2022-09-30T11:05:07.382Z,19.90
2022-09-30T11:07:41.846Z,19.90
2022-09-30T11:10:08.593Z,20.00
2022-09-30T11:12:47.531Z,20.10
2022-09-30T11:15:24.114Z,20.10
2022-09-30T11:17:57.672Z,20.10
2022-09-30T11:20:40.428Z,20.10
2022-09-30T11:23:07.817Z,20.10
2022-09-30T11:25:37.633Z,20.20
2022-09-30T11:28:27.378Z,20.10
2022-09-30T11:31:06.223Z,20.00
2022-09-30T11:33:40.672Z,20.00
2022-09-30T11:36:26.415Z,19.80
2022-09-30T11:39:14.329Z,19.90
2022-09-30T11:41:45.315Z,20.00
2022-09-30T11:44:18.216Z,20.00
2022-09-30T11:46:53.905Z,19.90
2022-09-30T11:49:20.638Z,19.70
2022-09-30T11:52:06.240Z,19.70
2022-09-30T11:54:38.888Z,19.50
2022-09-30T11:57:16.133Z,19.50
2022-09-30T11:59:46.985Z,19.30
2022-09-30T12:02:26.816Z,19.30
2022-09-30T12:04:57.707Z,19.30
2022-09-30T12:07:31.513Z,19.20
2022-09-30T12:10:01.347Z,19.10
2022-09-30T12:12:28.227Z,19.10
2022-09-30T12:15:00.346Z,19.00
2022-09-30T12:17:32.094Z,19.00
2022-09-30T12:20:03.324Z,19.00
2022-09-30T12:22:33.407Z,19.00
2022-09-30T12:25:01.470Z,18.90
2022-09-30T12:27:36.785Z,18.80
2022-09-30T12:30:17.785Z,18.70
2022-09-30T12:32:50.704Z,18.70
2022-09-30T12:35:36.557Z,18.70
2022-09-30T12:38:06.005Z,18.60
2022-09-30T12:40:33.084Z,18.50
2022-09-30T12:43:03.272Z,18.40
2022-09-30T12:45:33.180Z,18.30
2022-09-30T12:48:02.939Z,18.20
2022-09-30T12:50:31.357Z,18.20
2022-09-30T12:53:00.040Z,18.20
2022-09-30T12:55:32.181Z,18.10
2022-09-30T12:58:01.369Z,18.00
2022-09-30T13:00:30.907Z,18.00
2022-09-30T13:03:08.953Z,17.90
2022-09-30T13:05:46.815Z,17.80
2022-09-30T13:08:25.479Z,17.80
2022-09-30T13:10:59.816Z,17.90
2022-09-30T13:13:27.889Z,17.80
2022-09-30T13:16:02.204Z,17.80
2022-09-30T13:18:29.493Z,17.60
2022-09-30T13:20:57.625Z,17.60
2022-09-30T13:23:39.581Z,17.70
2022-09-30T13:26:24.968Z,17.70
2022-09-30T13:28:55.626Z,17.80
2022-09-30T13:31:23.780Z,17.80
2022-09-30T13:34:01.393Z,17.70
2022-09-30T13:36:33.158Z,17.70
2022-09-30T13:39:19.042Z,17.80
2022-09-30T13:42:00.931Z,17.70
2022-09-30T13:44:57.397Z,17.60
2022-09-30T13:47:34.210Z,17.50
2022-09-30T13:50:33.311Z,17.60
2022-09-30T13:53:02.643Z,17.50
2022-09-30T13:55:36.711Z,17.50
2022-09-30T13:58:24.251Z,17.60
2022-09-30T14:01:03.316Z,17.50
2022-09-30T14:03:52.862Z,17.40
2022-09-30T14:06:46.216Z,17.50
2022-09-30T14:09:12.932Z,17.50
2022-09-30T14:11:54.033Z,17.70
2022-09-30T14:14:24.892Z,17.60
2022-09-30T14:17:15.027Z,17.70
2022-09-30T14:19:44.900Z,17.60
2022-09-30T14:22:13.119Z,17.60
2022-09-30T14:24:40.340Z,17.70
2022-09-30T14:27:22.344Z,17.50
2022-09-30T14:30:01.157Z,17.60
2022-09-30T14:32:29.682Z,17.70
2022-09-30T14:34:57.508Z,17.60
2022-09-30T14:37:27.090Z,17.60
2022-09-30T14:39:53.998Z,17.60
2022-09-30T14:42:32.034Z,17.60
2022-09-30T14:45:04.511Z,17.60
2022-09-30T14:47:32.866Z,17.60
2022-09-30T14:50:00.545Z,17.70
2022-09-30T14:52:38.220Z,17.70
2022-09-30T14:55:17.759Z,17.50
2022-09-30T14:57:45.635Z,17.60
2022-09-30T15:00:19.384Z,17.60
2022-09-30T15:02:46.829Z,17.70
2022-09-30T15:05:15.133Z,17.80
2022-09-30T15:07:41.951Z,17.90
2022-09-30T15:10:19.040Z,17.90
2022-09-30T15:12:46.539Z,18.00
2022-09-30T15:15:45.682Z,18.00
2022-09-30T15:18:31.940Z,18.00
2022-09-30T15:21:08.637Z,18.00
2022-09-30T15:23:36.782Z,17.90
2022-09-30T15:26:03.794Z,17.80
2022-09-30T15:28:30.776Z,17.70
2022-09-30T15:30:58.605Z,17.60
2022-09-30T15:33:27.714Z,17.50
2022-09-30T15:36:04.491Z,17.50
2022-09-30T15:38:32.358Z,17.50
2022-09-30T15:41:00.538Z,17.40
2022-09-30T15:43:36.411Z,17.40
2022-09-30T15:46:15.451Z,17.20
2022-09-30T15:48:44.844Z,17.20
2022-09-30T15:51:31.366Z,17.20
2022-09-30T15:54:00.534Z,17.20
2022-09-30T15:56:34.528Z,17.10
2022-09-30T15:59:05.941Z,17.10
2022-09-30T16:01:33.062Z,17.10
2022-09-30T16:03:59.843Z,17.20
2022-09-30T16:06:32.637Z,17.30
2022-09-30T16:09:03.072Z,17.30
2022-09-30T16:11:29.854Z,17.30
2022-09-30T16:13:58.074Z,17.30
2022-09-30T16:16:26.664Z,17.30
2022-09-30T16:18:54.946Z,17.30
2022-09-30T16:21:47.301Z,17.40
2022-09-30T16:24:22.792Z,17.40
2022-09-30T16:26:52.720Z,17.40
2022-09-30T16:29:19.580Z,17.20
2022-09-30T16:31:47.774Z,17.10
2022-09-30T16:34:19.131Z,17.00
2022-09-30T16:36:45.855Z,17.00
2022-09-30T16:39:14.792Z,16.90
2022-09-30T16:41:42.553Z,17.20
2022-09-30T16:44:10.230Z,17.10
2022-09-30T16:46:37.024Z,17.00
2022-09-30T16:49:14.221Z,17.00
2022-09-30T16:51:40.988Z,17.00
2022-09-30T16:54:07.806Z,17.10
2022-09-30T16:56:35.217Z,16.90
2022-09-30T16:59:02.417Z,16.90
2022-09-30T17:01:29.227Z,16.80
2022-09-30T17:03:57.348Z,16.70
2022-09-30T17:06:31.609Z,16.80
2022-09-30T17:09:01.108Z,16.70
2022-09-30T17:11:34.614Z,16.80
2022-09-30T17:14:02.370Z,16.80
2022-09-30T17:16:29.676Z,16.70
2022-09-30T17:18:56.650Z,16.60
2022-09-30T17:21:25.564Z,16.50
2022-09-30T17:23:52.999Z,16.50
2022-09-30T17:26:19.725Z,16.50
2022-09-30T17:28:47.081Z,16.30
2022-09-30T17:31:13.919Z,16.30
2022-09-30T17:33:40.999Z,16.30
2022-09-30T17:36:09.866Z,16.40
2022-09-30T17:38:36.818Z,16.30
2022-09-30T17:41:22.486Z,16.30
2022-09-30T17:43:49.412Z,16.20
2022-09-30T17:46:23.201Z,16.30
2022-09-30T17:48:52.480Z,16.30
2022-09-30T17:51:19.275Z,16.20
2022-09-30T17:53:46.340Z,16.30
2022-09-30T17:56:20.704Z,16.10
2022-09-30T17:58:48.999Z,16.10
2022-09-30T18:01:16.845Z,16.10
2022-09-30T18:03:45.263Z,16.10
2022-09-30T18:06:12.090Z,16.10
2022-09-30T18:08:38.908Z,16.10
2022-09-30T18:11:05.698Z,16.10
2022-09-30T18:13:33.189Z,16.00
2022-09-30T18:16:02.013Z,16.00
2022-09-30T18:18:29.499Z,15.80
2022-09-30T18:20:56.221Z,15.70
2022-09-30T18:23:22.967Z,15.70
2022-09-30T18:25:54.420Z,15.70
2022-09-30T18:28:21.182Z,15.80
2022-09-30T18:30:48.109Z,15.80
2022-09-30T18:33:17.337Z,15.70
2022-09-30T18:35:44.200Z,15.70
2022-09-30T18:38:12.794Z,15.80
2022-09-30T18:40:41.012Z,15.70
2022-09-30T18:43:13.724Z,15.70
2022-09-30T18:45:40.557Z,15.70
2022-09-30T18:48:08.413Z,15.80
2022-09-30T18:50:35.354Z,15.70
2022-09-30T18:53:09.146Z,15.70
2022-09-30T18:55:37.104Z,15.70
2022-09-30T18:58:03.940Z,15.80
2022-09-30T19:00:31.153Z,15.80
2022-09-30T19:02:58.112Z,15.70
2022-09-30T19:05:25.347Z,15.70
2022-09-30T19:07:55.901Z,15.60
2022-09-30T19:10:24.670Z,15.60
2022-09-30T19:12:52.168Z,15.60
2022-09-30T19:15:19.521Z,15.70
2022-09-30T19:17:47.010Z,15.90
2022-09-30T19:20:15.402Z,15.90
2022-09-30T19:22:44.117Z,15.90
2022-09-30T19:25:12.257Z,16.00
2022-09-30T19:27:41.354Z,15.90
2022-09-30T19:30:09.770Z,15.80
2022-09-30T19:32:37.421Z,15.50
2022-09-30T19:35:06.995Z,15.40
2022-09-30T19:37:34.820Z,15.40
2022-09-30T19:40:13.268Z,15.60
2022-09-30T19:42:44.763Z,15.50
2022-09-30T19:45:12.181Z,15.40
2022-09-30T19:47:40.169Z,15.40
2022-09-30T19:50:07.960Z,15.40
2022-09-30T19:52:36.242Z,15.50
2022-09-30T19:55:15.842Z,15.50
2022-09-30T19:57:44.268Z,15.40
2022-09-30T20:00:13.311Z,15.50
2022-09-30T20:02:40.397Z,15.50
2022-09-30T20:05:07.834Z,15.50
2022-09-30T20:07:35.536Z,15.50
2022-09-30T20:10:02.865Z,15.40
2022-09-30T20:12:29.888Z,15.50
2022-09-30T20:15:15.247Z,15.40
2022-09-30T20:17:42.103Z,15.40
2022-09-30T20:20:27.828Z,15.40
2022-09-30T20:22:54.617Z,15.40
2022-09-30T20:25:21.479Z,15.40
2022-09-30T20:27:52.216Z,15.30
2022-09-30T20:30:20.302Z,15.30
2022-09-30T20:32:47.062Z,15.40
2022-09-30T20:35:14.018Z,15.30
2022-09-30T20:37:42.029Z,15.30
2022-09-30T20:40:12.078Z,15.40
2022-09-30T20:42:40.128Z,15.40
2022-09-30T20:45:10.229Z,15.30
2022-09-30T20:47:37.781Z,15.30
2022-09-30T20:50:04.794Z,15.20
2022-09-30T20:52:31.547Z,15.10
2022-09-30T20:54:59.902Z,15.20
2022-09-30T20:57:30.215Z,15.20
2022-09-30T20:59:58.430Z,15.20
2022-09-30T21:02:27.564Z,15.20
2022-09-30T21:04:58.120Z,15.20
2022-09-30T21:07:25.465Z,15.30
2022-09-30T21:09:52.490Z,15.30
2022-09-30T21:12:19.364Z,15.30
2022-09-30T21:14:46.106Z,15.20
2022-09-30T21:17:12.880Z,15.20
2022-09-30T21:19:40.031Z,15.10
2022-09-30T21:22:07.137Z,15.10
2022-09-30T21:24:33.947Z,15.00
2022-09-30T21:27:01.682Z,15.10
2022-09-30T21:29:30.554Z,15.10
2022-09-30T21:31:57.545Z,15.10
2022-09-30T21:34:24.419Z,15.10
2022-09-30T21:36:51.235Z,15.10
2022-09-30T21:39:17.992Z,15.10
2022-09-30T21:41:44.879Z,15.00
2022-09-30T21:44:11.555Z,15.00
2022-09-30T21:46:38.299Z,15.00
2022-09-30T21:49:05.104Z,15.00
2022-09-30T21:51:34.343Z,15.10
2022-09-30T21:54:02.068Z,15.10
2022-09-30T21:56:29.427Z,15.10
2022-09-30T21:58:56.391Z,15.10
2022-09-30T22:01:23.362Z,15.00
2022-09-30T22:03:50.117Z,15.00
2022-09-30T22:06:18.818Z,15.00
2022-09-30T22:08:45.555Z,15.00
2022-09-30T22:11:14.374Z,15.10
2022-09-30T22:13:44.928Z,15.00
2022-09-30T22:16:12.431Z,15.00
2022-09-30T22:18:39.244Z,15.10
2022-09-30T22:21:09.231Z,15.00
2022-09-30T22:23:35.954Z,15.00
2022-09-30T22:26:12.151Z,15.10
2022-09-30T22:28:39.321Z,15.00
2022-09-30T22:31:25.536Z,14.90
2022-09-30T22:34:12.070Z,14.90
2022-09-30T22:36:57.679Z,14.90
2022-09-30T22:39:24.596Z,14.80
2022-09-30T22:41:54.917Z,14.90
2022-09-30T22:44:24.777Z,14.90
2022-09-30T22:46:52.628Z,14.90
2022-09-30T22:49:19.483Z,14.90
2022-09-30T22:51:49.464Z,14.80
2022-09-30T22:54:16.213Z,14.80
2022-09-30T22:56:42.898Z,14.80
2022-09-30T22:59:09.674Z,14.80
2022-09-30T23:01:36.562Z,14.90
2022-09-30T23:04:03.474Z,14.90
2022-09-30T23:06:31.089Z,15.00
2022-09-30T23:08:57.820Z,14.90
2022-09-30T23:11:24.606Z,14.90
2022-09-30T23:13:58.210Z,14.90
2022-09-30T23:16:25.899Z,15.00
2022-09-30T23:18:52.978Z,15.00
2022-09-30T23:21:20.062Z,14.90
2022-09-30T23:23:48.285Z,14.90
2022-09-30T23:26:16.434Z,15.00
2022-09-30T23:28:43.537Z,15.00
2022-09-30T23:31:11.843Z,14.90
2022-09-30T23:33:39.872Z,14.80
2022-09-30T23:36:07.307Z,14.80
2022-09-30T23:38:33.975Z,14.70
2022-09-30T23:41:00.772Z,14.80
2022-09-30T23:43:31.194Z,14.90
2022-09-30T23:45:58.713Z,14.90
2022-09-30T23:48:25.707Z,14.80
2022-09-30T23:50:53.181Z,14.90
2022-09-30T23:53:20.902Z,14.80
2022-09-30T23:55:57.161Z,14.80
2022-09-30T23:58:24.683Z,14.80
